Purdue University Airport Lafayette US
ICAO: KLAF
IATA: LAF
Category: Medium
Scheduled Services: No

Elevation: 606 ft
TransAlt. 18000 ft.

Airport Communications:
ASOS:127.75
ATIS:127.75
CHICAGO CNTR:123.85
CTAF:119.6
GND:121.9
TERRE HAUTE RDO:122.2
LAFAYETTE TWR:119.6
UNICOM:122.95

KLAF Zoom In..

Runways:

(A) RW 05 length 4225 ft width 100 ft
---- / hdg 51

(B) RW 10 length 6600 ft width 150 ft
ILS 110.30 / hdg 100

(C) RW 23 length 4225 ft width 100 ft
---- / hdg 231

(D) RW 28 length 6600 ft width 150 ft
---- / hdg 280

Location; KLAF
Day. 20 / Time. 19.54 Zulu
* Altimeter: 29.70
* Temperature: 24° c. 75.2°f.
* Wind from: 260° Speed 09 kn with Gusts up to 15 kn.
Dewpoint: 21° c.
Visibility: 5 Statute Miles.
Clouds: Scattered 3200 ft.
Clouds: Broken 4100 ft.
Clouds: Overcast 6500 ft.
Conditions: Light Rain.

KLAF 201954Z 26009G15KT 5SM -RA SCT032 BKN041 OVC065 24/21 A2970 RMK AO2 PK WND 27028/1916 RAB47 SLP053 P0002 T02440206


Wind From 260°
Speed 09 kn.

 
 
jpsmedia.com for Web Design worldairports.se 2018   terms of use